Time;durP1;ratioP1;P1;durP2;ratioP2;P2;SDS_P1;SDS_P2;PMS_P1;PMS_P2;Temp;Humidity;BMP_temperature;BMP_pressure;BME280_temperature;BME280_humidity;BME280_pressure;Samples;Min_cycle;Max_cycle;Signal;HPM_P1;HPM_P2
2021/08/02 00:00:58;;;;;;;3.15;0.80;;;;;;;;;;4999587;28;20390;-56
2021/08/02 00:03:45;;;;;;;3.87;0.80;;;;;;;;;;5011955;28;20042;-55
2021/08/02 00:06:16;;;;;;;5.68;1.52;;;;;;;;;;5010398;28;20537;-55
2021/08/02 00:08:59;;;;;;;2.40;1.23;;;;;;;;;;5004397;28;20052;-55
2021/08/02 00:11:30;;;;;;;4.50;0.82;;;;;;;;;;5000926;28;20042;-55
2021/08/02 00:13:58;;;;;;;8.70;1.85;;;;;;;;;;5002084;28;20050;-56
2021/08/02 00:16:25;;;;;;;5.88;1.42;;;;;;;;;;5004163;28;20471;-56
2021/08/02 00:18:52;;;;;;;3.17;0.73;;;;;;;;;;5008376;28;20026;-55
2021/08/02 00:21:19;;;;;;;4.97;1.00;;;;;;;;;;5006931;28;20053;-56
2021/08/02 00:23:45;;;;;;;4.93;0.90;;;;;;;;;;5010608;28;20064;-56
2021/08/02 00:26:12;;;;;;;2.78;0.90;;;;;;;;;;5008426;28;20072;-56
2021/08/02 00:28:40;;;;;;;4.93;1.08;;;;;;;;;;5009623;28;20042;-56
2021/08/02 00:31:06;;;;;;;2.15;0.77;;;;;;;;;;5005712;28;20117;-56
2021/08/02 00:33:33;;;;;;;2.20;1.15;;;;;;;;;;5003762;28;20046;-55
2021/08/02 00:36:03;;;;;;;5.03;0.80;;;;;;;;;;5008995;28;20528;-56
2021/08/02 00:38:35;;;;;;;3.45;0.80;;;;;;;;;;5008155;28;20054;-57
2021/08/02 00:41:22;;;;;;;7.03;1.55;;;;;;;;;;5002757;28;20045;-56
2021/08/02 00:44:08;;;;;;;6.70;1.05;;;;;;;;;;5008295;28;20054;-56
2021/08/02 00:46:38;;;;;;;4.20;0.98;;;;;;;;;;5019202;28;20449;-54
2021/08/02 00:49:06;;;;;;;5.47;0.90;;;;;;;;;;5009833;28;20508;-55
2021/08/02 00:51:35;;;;;;;7.80;1.70;;;;;;;;;;5009706;28;20065;-55
2021/08/02 00:54:02;;;;;;;4.32;0.93;;;;;;;;;;5008186;28;20088;-55
2021/08/02 00:56:32;;;;;;;5.00;1.40;;;;;;;;;;4997554;28;20070;-56
2021/08/02 00:59:04;;;;;;;2.53;0.80;;;;;;;;;;5007788;28;20085;-55
2021/08/02 01:01:35;;;;;;;2.80;0.73;;;;;;;;;;5007185;28;20038;-55
2021/08/02 01:04:03;;;;;;;6.70;1.10;;;;;;;;;;5010000;28;20289;-56
2021/08/02 01:06:30;;;;;;;4.85;1.25;;;;;;;;;;5013340;28;20045;-55
2021/08/02 01:09:02;;;;;;;2.38;1.33;;;;;;;;;;4996546;28;20042;-55
2021/08/02 01:11:29;;;;;;;6.80;1.10;;;;;;;;;;5006934;28;20487;-55
2021/08/02 01:13:57;;;;;;;2.95;0.93;;;;;;;;;;5012464;28;20088;-56
2021/08/02 01:16:25;;;;;;;3.05;1.00;;;;;;;;;;5014432;28;20046;-55
2021/08/02 01:18:52;;;;;;;3.38;1.10;;;;;;;;;;5007061;28;20042;-54
2021/08/02 01:21:20;;;;;;;9.75;1.35;;;;;;;;;;5007903;28;20077;-56
2021/08/02 01:23:48;;;;;;;2.67;0.90;;;;;;;;;;5007482;28;20070;-56
2021/08/02 01:26:34;;;;;;;2.30;1.67;;;;;;;;;;5001700;28;20046;-56
2021/08/02 01:29:19;;;;;;;5.47;1.25;;;;;;;;;;5002364;28;20045;-55
2021/08/02 01:31:46;;;;;;;6.18;0.98;;;;;;;;;;5012296;28;20042;-56
2021/08/02 01:34:13;;;;;;;4.25;1.45;;;;;;;;;;5004801;28;20046;-56
2021/08/02 01:36:39;;;;;;;2.60;1.08;;;;;;;;;;5004367;28;20046;-55
2021/08/02 01:39:06;;;;;;;6.95;1.65;;;;;;;;;;5008067;28;20037;-55
2021/08/02 01:41:33;;;;;;;3.67;1.15;;;;;;;;;;5009982;28;20073;-55
2021/08/02 01:44:00;;;;;;;4.75;1.05;;;;;;;;;;5013138;28;20126;-55
2021/08/02 01:46:33;;;;;;;5.28;1.00;;;;;;;;;;5010844;28;20100;-56
2021/08/02 01:49:07;;;;;;;2.90;1.48;;;;;;;;;;5000650;28;20027;-56
2021/08/02 01:51:45;;;;;;;9.05;1.45;;;;;;;;;;5010207;28;20089;-56
2021/08/02 01:54:17;;;;;;;4.72;1.00;;;;;;;;;;4998580;28;20065;-56
2021/08/02 01:56:44;;;;;;;5.15;1.40;;;;;;;;;;5024298;28;20029;-55
2021/08/02 01:59:13;;;;;;;6.82;1.00;;;;;;;;;;5017347;28;20073;-57
2021/08/02 02:01:41;;;;;;;5.15;0.90;;;;;;;;;;5003863;28;20065;-56
2021/08/02 02:04:09;;;;;;;6.03;1.50;;;;;;;;;;5012962;28;20092;-56
2021/08/02 02:06:38;;;;;;;7.40;1.58;;;;;;;;;;5006503;28;20081;-55
2021/08/02 02:09:06;;;;;;;11.93;2.25;;;;;;;;;;5011142;28;20049;-56
2021/08/02 02:11:34;;;;;;;2.92;0.90;;;;;;;;;;5010994;28;20042;-56
2021/08/02 02:14:02;;;;;;;3.45;1.10;;;;;;;;;;5011545;28;20125;-56
2021/08/02 02:16:30;;;;;;;5.65;1.05;;;;;;;;;;5004777;28;20046;-56
2021/08/02 02:19:00;;;;;;;2.28;1.17;;;;;;;;;;5007688;28;20475;-55
2021/08/02 02:21:27;;;;;;;5.70;1.13;;;;;;;;;;5012012;28;20073;-55
2021/08/02 02:23:55;;;;;;;7.10;1.20;;;;;;;;;;5011324;28;20107;-56
2021/08/02 02:26:25;;;;;;;4.40;0.90;;;;;;;;;;5010410;28;20042;-56
2021/08/02 02:28:51;;;;;;;9.43;0.82;;;;;;;;;;5011571;28;20069;-56
2021/08/02 02:31:19;;;;;;;5.25;0.95;;;;;;;;;;5005847;28;20042;-54
2021/08/02 02:33:47;;;;;;;4.18;1.08;;;;;;;;;;4994419;28;20041;-56
2021/08/02 02:36:14;;;;;;;4.57;1.00;;;;;;;;;;5010299;28;20104;-55
2021/08/02 02:38:42;;;;;;;5.65;1.40;;;;;;;;;;5010140;28;20054;-55
2021/08/02 02:41:09;;;;;;;6.32;1.20;;;;;;;;;;5007674;28;20057;-55
2021/08/02 02:43:37;;;;;;;2.22;1.10;;;;;;;;;;5011812;28;20125;-55
2021/08/02 02:46:04;;;;;;;5.93;1.10;;;;;;;;;;4999668;28;20053;-55
2021/08/02 02:48:31;;;;;;;2.75;0.90;;;;;;;;;;5004221;28;20803;-56
2021/08/02 02:50:58;;;;;;;4.82;0.90;;;;;;;;;;4999721;28;20069;-56
2021/08/02 02:53:25;;;;;;;2.17;0.90;;;;;;;;;;5012276;28;20030;-55
2021/08/02 02:55:53;;;;;;;6.68;1.10;;;;;;;;;;5010466;28;20441;-56
2021/08/02 02:58:19;;;;;;;4.00;1.10;;;;;;;;;;5000734;28;20046;-55
2021/08/02 03:00:46;;;;;;;2.03;1.00;;;;;;;;;;5007128;28;20450;-56
2021/08/02 03:03:19;;;;;;;3.55;1.00;;;;;;;;;;5003447;28;20038;-55
2021/08/02 03:05:46;;;;;;;6.45;0.90;;;;;;;;;;4996054;28;20042;-56
2021/08/02 03:08:15;;;;;;;4.10;1.00;;;;;;;;;;5004886;28;20533;-56
2021/08/02 03:10:42;;;;;;;2.17;0.80;;;;;;;;;;4996800;28;20041;-55
2021/08/02 03:13:08;;;;;;;7.50;1.52;;;;;;;;;;5005111;28;20092;-56
2021/08/02 03:15:36;;;;;;;2.63;1.13;;;;;;;;;;5010067;28;20038;-56
2021/08/02 03:18:03;;;;;;;6.07;1.00;;;;;;;;;;5010722;28;20747;-55
2021/08/02 03:20:29;;;;;;;5.63;1.38;;;;;;;;;;5005481;28;20483;-55
2021/08/02 03:23:04;;;;;;;5.68;1.10;;;;;;;;;;5008157;28;20045;-54
2021/08/02 03:25:39;;;;;;;3.70;1.75;;;;;;;;;;5005671;28;20447;-56
2021/08/02 03:28:09;;;;;;;6.85;1.23;;;;;;;;;;5009754;28;20549;-55
2021/08/02 03:30:37;;;;;;;3.65;1.10;;;;;;;;;;5000438;28;20125;-55
2021/08/02 03:33:06;;;;;;;7.80;1.85;;;;;;;;;;5011017;28;20163;-55
2021/08/02 03:35:33;;;;;;;3.65;1.00;;;;;;;;;;5010055;28;20049;-55
2021/08/02 03:38:01;;;;;;;3.95;1.00;;;;;;;;;;4996232;28;20723;-54
2021/08/02 03:40:28;;;;;;;9.95;1.38;;;;;;;;;;5008720;28;20113;-56
2021/08/02 03:42:56;;;;;;;2.85;1.00;;;;;;;;;;5009557;28;20038;-54
2021/08/02 03:45:25;;;;;;;3.85;1.35;;;;;;;;;;5008293;28;20065;-55
2021/08/02 03:47:52;;;;;;;5.68;0.95;;;;;;;;;;5010186;28;20433;-55
2021/08/02 03:50:18;;;;;;;5.25;1.10;;;;;;;;;;5007040;28;20390;-54
2021/08/02 03:52:47;;;;;;;1.63;1.10;;;;;;;;;;5009435;28;20042;-55
2021/08/02 03:55:14;;;;;;;2.10;1.10;;;;;;;;;;5009461;28;20092;-56
2021/08/02 03:57:40;;;;;;;6.32;1.00;;;;;;;;;;5011975;28;20048;-54
2021/08/02 04:00:07;;;;;;;4.75;1.05;;;;;;;;;;5007207;28;20069;-55
2021/08/02 04:02:34;;;;;;;3.80;0.90;;;;;;;;;;5005204;28;20074;-55
2021/08/02 04:05:01;;;;;;;3.25;1.23;;;;;;;;;;5007817;28;20045;-56
2021/08/02 04:07:28;;;;;;;2.55;0.98;;;;;;;;;;5010086;28;20056;-56
2021/08/02 04:09:55;;;;;;;4.93;1.48;;;;;;;;;;5010783;28;20126;-56
2021/08/02 04:12:22;;;;;;;2.35;0.95;;;;;;;;;;5009120;28;20049;-55
2021/08/02 04:14:48;;;;;;;1.77;1.25;;;;;;;;;;5002488;28;20061;-56
2021/08/02 04:17:15;;;;;;;4.90;1.20;;;;;;;;;;5009199;28;20049;-56
2021/08/02 04:19:42;;;;;;;7.28;1.27;;;;;;;;;;5000725;28;20049;-56
2021/08/02 04:22:09;;;;;;;3.28;1.00;;;;;;;;;;5010514;28;20081;-56
2021/08/02 04:24:35;;;;;;;5.32;1.15;;;;;;;;;;5008977;28;20120;-56
2021/08/02 04:27:02;;;;;;;7.93;1.20;;;;;;;;;;5008134;28;20064;-54
2021/08/02 04:29:29;;;;;;;2.78;1.33;;;;;;;;;;5009064;28;20042;-57
2021/08/02 04:31:56;;;;;;;5.43;1.30;;;;;;;;;;5006868;28;20422;-54
2021/08/02 04:34:22;;;;;;;7.22;1.20;;;;;;;;;;4997517;28;20034;-55
2021/08/02 04:36:49;;;;;;;7.13;1.10;;;;;;;;;;5009242;28;20072;-56
2021/08/02 04:39:16;;;;;;;9.27;1.30;;;;;;;;;;5012001;28;20034;-57
2021/08/02 04:41:42;;;;;;;5.53;1.38;;;;;;;;;;5003690;28;20042;-56
2021/08/02 04:44:09;;;;;;;7.10;1.35;;;;;;;;;;5004303;28;20096;-56
2021/08/02 04:46:36;;;;;;;5.03;1.00;;;;;;;;;;5009400;28;20050;-55
2021/08/02 04:49:03;;;;;;;10.13;1.52;;;;;;;;;;5009414;28;20053;-55
2021/08/02 04:51:29;;;;;;;7.13;1.13;;;;;;;;;;4998068;28;20507;-56
2021/08/02 04:53:56;;;;;;;10.02;2.28;;;;;;;;;;5012315;28;20046;-55
2021/08/02 04:56:23;;;;;;;7.55;1.40;;;;;;;;;;5010935;28;20033;-55
2021/08/02 04:58:50;;;;;;;3.58;1.13;;;;;;;;;;4996508;28;20386;-55
2021/08/02 05:01:16;;;;;;;6.28;1.83;;;;;;;;;;5014337;28;20065;-56
2021/08/02 05:03:43;;;;;;;4.10;1.27;;;;;;;;;;5008337;28;20042;-56
2021/08/02 05:06:10;;;;;;;9.43;1.70;;;;;;;;;;5012333;28;20034;-55
2021/08/02 05:08:37;;;;;;;4.43;1.30;;;;;;;;;;5010280;28;20046;-56
2021/08/02 05:11:04;;;;;;;6.43;1.80;;;;;;;;;;4995713;28;20057;-56
2021/08/02 05:13:31;;;;;;;4.97;1.33;;;;;;;;;;5011155;28;20034;-54
2021/08/02 05:15:57;;;;;;;10.07;1.83;;;;;;;;;;5009124;28;20073;-55
2021/08/02 05:18:24;;;;;;;9.80;1.65;;;;;;;;;;5009855;28;20113;-56
2021/08/02 05:20:51;;;;;;;2.67;1.00;;;;;;;;;;5010506;28;20105;-56
2021/08/02 05:23:17;;;;;;;9.70;1.48;;;;;;;;;;5011474;28;20046;-55
2021/08/02 05:25:44;;;;;;;12.45;1.13;;;;;;;;;;5010452;28;20591;-57
2021/08/02 05:28:11;;;;;;;4.47;1.00;;;;;;;;;;5009757;28;20042;-57
2021/08/02 05:30:38;;;;;;;1.25;0.90;;;;;;;;;;5010459;28;20038;-57
2021/08/02 05:33:04;;;;;;;4.15;1.33;;;;;;;;;;5008972;28;20078;-57
2021/08/02 05:35:31;;;;;;;1.55;1.10;;;;;;;;;;5001684;28;20129;-57
2021/08/02 05:37:58;;;;;;;8.88;1.10;;;;;;;;;;5012922;28;20038;-57
2021/08/02 05:40:24;;;;;;;5.90;1.67;;;;;;;;;;5010393;28;20129;-56
2021/08/02 05:42:51;;;;;;;1.85;0.80;;;;;;;;;;5011620;28;20125;-57
2021/08/02 05:45:18;;;;;;;4.13;0.90;;;;;;;;;;5007796;28;20046;-57
2021/08/02 05:47:45;;;;;;;11.30;1.40;;;;;;;;;;5005396;28;20082;-58
2021/08/02 05:50:11;;;;;;;8.15;1.20;;;;;;;;;;5012014;28;20072;-57
2021/08/02 05:52:41;;;;;;;5.65;1.95;;;;;;;;;;5010651;28;20041;-57
2021/08/02 05:55:09;;;;;;;8.00;1.27;;;;;;;;;;4995721;28;20046;-57
2021/08/02 05:57:35;;;;;;;5.80;0.90;;;;;;;;;;5009328;28;20083;-56
2021/08/02 06:00:04;;;;;;;6.35;1.58;;;;;;;;;;5009368;28;20042;-57
2021/08/02 06:02:31;;;;;;;8.88;1.20;;;;;;;;;;5010713;28;20132;-57
2021/08/02 06:04:58;;;;;;;2.80;1.20;;;;;;;;;;5010749;28;20049;-57
2021/08/02 06:07:25;;;;;;;6.05;1.35;;;;;;;;;;5023845;28;20416;-57
2021/08/02 06:09:52;;;;;;;1.00;0.90;;;;;;;;;;5005118;28;20046;-57
2021/08/02 06:12:19;;;;;;;5.43;1.25;;;;;;;;;;4997206;28;20042;-57
2021/08/02 06:14:46;;;;;;;5.15;1.10;;;;;;;;;;5009883;28;20347;-57
2021/08/02 06:17:13;;;;;;;5.68;1.35;;;;;;;;;;5010945;28;20493;-57
2021/08/02 06:19:43;;;;;;;4.53;1.45;;;;;;;;;;5002910;28;20049;-57
2021/08/02 06:22:13;;;;;;;8.55;1.70;;;;;;;;;;5007739;28;20042;-57
2021/08/02 06:24:42;;;;;;;5.25;0.90;;;;;;;;;;5009013;28;20042;-56
2021/08/02 06:27:09;;;;;;;2.97;1.80;;;;;;;;;;5011698;28;20050;-56
2021/08/02 06:29:35;;;;;;;4.63;1.25;;;;;;;;;;5009316;28;20073;-57
2021/08/02 06:32:02;;;;;;;7.13;1.05;;;;;;;;;;5008833;28;20088;-57
2021/08/02 06:34:29;;;;;;;3.40;1.40;;;;;;;;;;5004225;28;20054;-57
2021/08/02 06:36:55;;;;;;;8.07;1.65;;;;;;;;;;5000963;28;20060;-56
2021/08/02 06:39:22;;;;;;;6.30;1.30;;;;;;;;;;5011126;28;20587;-56
2021/08/02 06:41:49;;;;;;;5.47;1.05;;;;;;;;;;5008568;28;20391;-57
2021/08/02 06:44:16;;;;;;;8.57;1.23;;;;;;;;;;5009924;28;20494;-57
2021/08/02 06:46:43;;;;;;;4.45;1.00;;;;;;;;;;5011735;28;20084;-57
2021/08/02 06:49:10;;;;;;;8.93;1.55;;;;;;;;;;5007463;28;20069;-56
2021/08/02 06:51:37;;;;;;;6.60;1.20;;;;;;;;;;5002333;28;20089;-56
2021/08/02 06:54:04;;;;;;;4.78;1.40;;;;;;;;;;5006217;28;20116;-57
2021/08/02 06:56:30;;;;;;;2.92;0.90;;;;;;;;;;5009629;28;20580;-57
2021/08/02 06:58:57;;;;;;;3.08;1.10;;;;;;;;;;5001543;28;20039;-56
2021/08/02 07:01:24;;;;;;;5.75;1.20;;;;;;;;;;5001806;28;20422;-56
2021/08/02 07:03:51;;;;;;;6.18;1.00;;;;;;;;;;4998835;28;20033;-57
2021/08/02 07:06:18;;;;;;;10.15;1.88;;;;;;;;;;5008656;28;20618;-57
2021/08/02 07:08:45;;;;;;;7.95;1.10;;;;;;;;;;5009069;28;20045;-57
2021/08/02 07:11:11;;;;;;;6.72;1.00;;;;;;;;;;5010324;28;20066;-57
2021/08/02 07:13:38;;;;;;;9.43;1.38;;;;;;;;;;5009323;28;20033;-56
2021/08/02 07:16:05;;;;;;;8.30;1.40;;;;;;;;;;4993321;28;20048;-57
2021/08/02 07:18:32;;;;;;;5.97;1.40;;;;;;;;;;5005211;28;20074;-56
2021/08/02 07:20:58;;;;;;;9.27;1.75;;;;;;;;;;5003090;28;20038;-57
2021/08/02 07:23:25;;;;;;;14.25;1.38;;;;;;;;;;5011105;28;20049;-55
2021/08/02 07:25:52;;;;;;;9.70;1.10;;;;;;;;;;5008477;28;20069;-57
2021/08/02 07:28:19;;;;;;;9.45;1.15;;;;;;;;;;4993016;28;20069;-57
2021/08/02 07:30:46;;;;;;;5.15;1.20;;;;;;;;;;5004757;28;20112;-56
2021/08/02 07:33:13;;;;;;;9.40;1.13;;;;;;;;;;4997457;28;20034;-57
2021/08/02 07:35:39;;;;;;;6.82;1.63;;;;;;;;;;5011101;28;20132;-56
2021/08/02 07:38:06;;;;;;;6.28;1.08;;;;;;;;;;5009070;28;20626;-57
2021/08/02 07:40:33;;;;;;;8.98;1.33;;;;;;;;;;5006318;28;20092;-57
2021/08/02 07:43:00;;;;;;;10.32;1.13;;;;;;;;;;5003321;28;20089;-57
2021/08/02 07:45:27;;;;;;;8.38;0.95;;;;;;;;;;4999066;28;20041;-56
2021/08/02 07:47:53;;;;;;;9.25;0.88;;;;;;;;;;4995923;28;20050;-57
2021/08/02 07:50:20;;;;;;;4.05;1.30;;;;;;;;;;5003074;28;20029;-56
2021/08/02 07:52:47;;;;;;;7.03;0.90;;;;;;;;;;5001467;28;20129;-56
2021/08/02 07:55:14;;;;;;;3.00;0.90;;;;;;;;;;5010692;28;20061;-57
2021/08/02 07:57:41;;;;;;;7.43;0.90;;;;;;;;;;5008768;28;20061;-57
2021/08/02 08:00:08;;;;;;;3.70;0.80;;;;;;;;;;4994789;28;20038;-56
2021/08/02 08:02:35;;;;;;;3.67;0.80;;;;;;;;;;5006334;28;20077;-57
2021/08/02 08:05:03;;;;;;;6.53;1.17;;;;;;;;;;5005613;28;20042;-57
2021/08/02 08:07:41;;;;;;;3.58;0.88;;;;;;;;;;4999890;28;20046;-56
2021/08/02 08:10:08;;;;;;;6.22;1.10;;;;;;;;;;5008421;28;20085;-57
2021/08/02 08:12:35;;;;;;;3.15;1.02;;;;;;;;;;4993130;28;20042;-57
2021/08/02 08:15:02;;;;;;;7.28;0.98;;;;;;;;;;5009089;28;20038;-58
2021/08/02 08:17:29;;;;;;;4.47;1.42;;;;;;;;;;5008194;28;20073;-57
2021/08/02 08:19:56;;;;;;;4.07;0.80;;;;;;;;;;5009608;28;20049;-57
2021/08/02 08:22:24;;;;;;;4.78;1.65;;;;;;;;;;5008927;28;20070;-57
2021/08/02 08:24:50;;;;;;;6.28;1.42;;;;;;;;;;4990636;28;20070;-57
2021/08/02 08:27:17;;;;;;;3.63;0.70;;;;;;;;;;5008067;28;20096;-57
2021/08/02 08:29:44;;;;;;;4.78;0.70;;;;;;;;;;5007657;28;20042;-57
2021/08/02 08:32:11;;;;;;;4.03;0.70;;;;;;;;;;5009688;28;20113;-57
2021/08/02 08:34:37;;;;;;;3.75;0.70;;;;;;;;;;5007449;28;20140;-57
2021/08/02 08:37:04;;;;;;;2.63;0.50;;;;;;;;;;4997902;28;20089;-57
2021/08/02 08:39:31;;;;;;;2.90;0.70;;;;;;;;;;5002642;28;20042;-57
2021/08/02 08:41:58;;;;;;;2.08;0.50;;;;;;;;;;5007171;28;20062;-57
2021/08/02 08:44:29;;;;;;;0.98;0.60;;;;;;;;;;5010391;28;20100;-57
2021/08/02 08:46:56;;;;;;;1.63;0.60;;;;;;;;;;5004332;28;20076;-58
2021/08/02 08:49:23;;;;;;;2.90;0.70;;;;;;;;;;4992420;28;20042;-57
2021/08/02 08:51:52;;;;;;;0.88;0.50;;;;;;;;;;5000333;28;20050;-57
2021/08/02 08:54:18;;;;;;;8.23;0.70;;;;;;;;;;4998789;28;20096;-57
2021/08/02 08:56:45;;;;;;;3.80;0.60;;;;;;;;;;5009662;28;20072;-56
2021/08/02 08:59:13;;;;;;;2.38;0.60;;;;;;;;;;5007647;28;20070;-57
2021/08/02 09:01:40;;;;;;;0.73;0.60;;;;;;;;;;5006550;28;20045;-57
2021/08/02 09:04:07;;;;;;;2.60;0.70;;;;;;;;;;4999071;28;20039;-57
2021/08/02 09:06:47;;;;;;;1.38;0.60;;;;;;;;;;5001577;28;20049;-57
2021/08/02 09:09:30;;;;;;;6.82;1.15;;;;;;;;;;4992235;28;20471;-57
2021/08/02 09:12:19;;;;;;;2.08;0.50;;;;;;;;;;5007043;28;20039;-57
2021/08/02 09:14:52;;;;;;;2.28;0.70;;;;;;;;;;5006249;28;20479;-57
2021/08/02 09:17:26;;;;;;;0.88;0.60;;;;;;;;;;4989774;28;20046;-58
2021/08/02 09:19:54;;;;;;;2.25;0.60;;;;;;;;;;5003448;28;20121;-57
2021/08/02 09:22:47;;;;;;;4.97;1.13;;;;;;;;;;5005137;28;20077;-57
2021/08/02 09:25:13;;;;;;;;;;;;;;;;;;5012212;28;20394;-57
2021/08/02 09:27:41;;;;;;;0.80;0.60;;;;;;;;;;5011807;28;20345;-56
2021/08/02 09:30:21;;;;;;;1.45;0.70;;;;;;;;;;5011024;28;20040;-57
2021/08/02 09:32:49;;;;;;;4.00;0.73;;;;;;;;;;4998583;28;20049;-58
2021/08/02 09:35:29;;;;;;;3.03;0.50;;;;;;;;;;5008204;28;20062;-56
2021/08/02 09:38:04;;;;;;;1.27;0.68;;;;;;;;;;5007308;28;20061;-57
2021/08/02 09:40:38;;;;;;;2.15;0.60;;;;;;;;;;5000940;28;20078;-57
2021/08/02 09:43:05;;;;;;;4.00;0.88;;;;;;;;;;5005369;28;20521;-56
2021/08/02 09:45:59;;;;;;;0.90;0.50;;;;;;;;;;5009491;28;20481;-57
2021/08/02 09:48:34;;;;;;;1.20;0.73;;;;;;;;;;5010114;28;20046;-57
2021/08/02 09:51:11;;;;;;;1.67;0.40;;;;;;;;;;5010318;28;20034;-56
2021/08/02 09:53:39;;;;;;;0.82;0.40;;;;;;;;;;5006720;28;20080;-57
2021/08/02 09:56:07;;;;;;;0.60;0.50;;;;;;;;;;5009621;28;20514;-57
2021/08/02 09:58:35;;;;;;;1.23;0.50;;;;;;;;;;5008425;28;20057;-57
2021/08/02 10:01:02;;;;;;;0.85;0.40;;;;;;;;;;5010036;28;20096;-55
2021/08/02 10:03:30;;;;;;;0.60;0.50;;;;;;;;;;5010248;28;20037;-56
2021/08/02 10:05:57;;;;;;;2.80;0.40;;;;;;;;;;5010706;28;20104;-57
2021/08/02 10:08:30;;;;;;;0.60;0.40;;;;;;;;;;5006690;28;20070;-55
2021/08/02 10:10:57;;;;;;;2.15;0.40;;;;;;;;;;4997894;28;20125;-57
2021/08/02 10:13:26;;;;;;;0.50;0.50;;;;;;;;;;4999646;28;20467;-57
2021/08/02 10:15:53;;;;;;;0.75;0.40;;;;;;;;;;5003716;28;20073;-56
2021/08/02 10:18:21;;;;;;;2.60;0.55;;;;;;;;;;5009899;28;20133;-57
2021/08/02 10:21:01;;;;;;;1.00;0.40;;;;;;;;;;5006893;28;20042;-57
2021/08/02 10:23:28;;;;;;;1.48;0.50;;;;;;;;;;5005367;28;20042;-57
2021/08/02 10:25:54;;;;;;;0.77;0.50;;;;;;;;;;5011498;28;20412;-57
2021/08/02 10:28:21;;;;;;;0.50;0.30;;;;;;;;;;5007953;28;20056;-57
2021/08/02 10:30:59;;;;;;;2.28;0.30;;;;;;;;;;5008361;28;20065;-57
2021/08/02 10:33:36;;;;;;;0.50;0.30;;;;;;;;;;5000660;28;20056;-57
2021/08/02 10:36:13;;;;;;;0.50;0.30;;;;;;;;;;5003757;28;20061;-57
2021/08/02 10:38:44;;;;;;;4.85;0.50;;;;;;;;;;4998805;28;20379;-57
2021/08/02 10:41:22;;;;;;;1.50;0.40;;;;;;;;;;5016123;28;20061;-57
2021/08/02 10:43:50;;;;;;;2.03;0.40;;;;;;;;;;5013390;28;20057;-57
2021/08/02 10:46:20;;;;;;;0.60;0.40;;;;;;;;;;5002028;28;20034;-57
2021/08/02 10:48:48;;;;;;;0.40;0.32;;;;;;;;;;5007631;28;20129;-56
2021/08/02 10:51:19;;;;;;;1.00;0.40;;;;;;;;;;4992614;28;20088;-57
2021/08/02 10:53:57;;;;;;;1.60;0.40;;;;;;;;;;5005886;28;20458;-57
2021/08/02 10:56:27;;;;;;;1.58;0.30;;;;;;;;;;5004151;28;20081;-57
2021/08/02 10:58:56;;;;;;;2.28;0.30;;;;;;;;;;4997625;28;20069;-57
2021/08/02 11:01:26;;;;;;;1.90;0.30;;;;;;;;;;5010498;28;20060;-57
2021/08/02 11:03:55;;;;;;;1.73;0.47;;;;;;;;;;5014931;28;20389;-57
2021/08/02 11:06:32;;;;;;;0.73;0.30;;;;;;;;;;4998616;28;20038;-57
2021/08/02 11:08:59;;;;;;;1.45;0.45;;;;;;;;;;5004478;28;20087;-58
2021/08/02 11:11:42;;;;;;;0.52;0.40;;;;;;;;;;4995613;28;20073;-57
2021/08/02 11:14:21;;;;;;;1.70;0.40;;;;;;;;;;5009907;28;20052;-57
2021/08/02 11:16:49;;;;;;;0.75;0.38;;;;;;;;;;5009699;28;20065;-57
2021/08/02 11:19:17;;;;;;;2.83;0.40;;;;;;;;;;5005728;28;20030;-57
2021/08/02 11:21:47;;;;;;;1.02;0.40;;;;;;;;;;5004529;28;20050;-57
2021/08/02 11:24:14;;;;;;;0.40;0.30;;;;;;;;;;5007538;28;20069;-57
2021/08/02 11:26:53;;;;;;;3.85;0.40;;;;;;;;;;5008333;28;20053;-56
2021/08/02 11:29:21;;;;;;;0.55;0.40;;;;;;;;;;5006810;28;20042;-56
2021/08/02 11:31:56;;;;;;;0.32;0.32;;;;;;;;;;5007910;28;20046;-57
2021/08/02 11:34:23;;;;;;;0.70;0.50;;;;;;;;;;5010359;28;20061;-57
2021/08/02 11:36:56;;;;;;;1.00;0.43;;;;;;;;;;5002927;28;20036;-56
2021/08/02 11:39:23;;;;;;;1.60;0.40;;;;;;;;;;4995953;28;20049;-56
2021/08/02 11:42:00;;;;;;;0.40;0.40;;;;;;;;;;5007755;28;20045;-56
2021/08/02 11:44:27;;;;;;;0.30;0.30;;;;;;;;;;5009775;28;20037;-56
2021/08/02 11:46:55;;;;;;;0.75;0.40;;;;;;;;;;4996150;28;20137;-56
2021/08/02 11:49:22;;;;;;;1.60;0.52;;;;;;;;;;5005690;28;20128;-57
2021/08/02 11:51:50;;;;;;;1.92;0.40;;;;;;;;;;5007522;28;20109;-57
2021/08/02 11:54:25;;;;;;;0.57;0.40;;;;;;;;;;5006811;28;20521;-56
2021/08/02 11:56:53;;;;;;;0.40;0.30;;;;;;;;;;5009491;28;20067;-57
2021/08/02 11:59:24;;;;;;;0.75;0.30;;;;;;;;;;4992570;28;20046;-57
2021/08/02 12:01:52;;;;;;;0.40;0.40;;;;;;;;;;5003292;28;20043;-57
2021/08/02 12:04:20;;;;;;;0.40;0.38;;;;;;;;;;4993751;28;20033;-57
2021/08/02 12:06:55;;;;;;;0.32;0.30;;;;;;;;;;4999406;28;20121;-57
2021/08/02 12:09:34;;;;;;;0.40;0.40;;;;;;;;;;5007722;28;20048;-57
2021/08/02 12:12:03;;;;;;;0.68;0.30;;;;;;;;;;5006678;28;21800;-57
2021/08/02 12:14:30;;;;;;;3.72;0.50;;;;;;;;;;5001511;28;20564;-57
2021/08/02 12:17:04;;;;;;;1.92;0.30;;;;;;;;;;5005678;28;20037;-57
2021/08/02 12:19:51;;;;;;;0.77;0.60;;;;;;;;;;5008171;28;20034;-57
2021/08/02 12:22:20;;;;;;;1.25;0.40;;;;;;;;;;5009275;28;20050;-56
2021/08/02 12:24:47;;;;;;;1.25;0.28;;;;;;;;;;5009646;28;20091;-57
2021/08/02 12:27:14;;;;;;;1.42;0.40;;;;;;;;;;5007276;28;20052;-57
2021/08/02 12:29:41;;;;;;;2.95;0.40;;;;;;;;;;5008208;28;20038;-57
2021/08/02 12:32:08;;;;;;;1.40;0.30;;;;;;;;;;4994015;28;20038;-58
2021/08/02 12:34:37;;;;;;;0.30;0.30;;;;;;;;;;5009432;28;20042;-58
2021/08/02 12:37:03;;;;;;;0.20;0.20;;;;;;;;;;5006049;28;20065;-58
2021/08/02 12:39:31;;;;;;;0.57;0.50;;;;;;;;;;4994657;28;20054;-58
2021/08/02 12:41:58;;;;;;;0.40;0.30;;;;;;;;;;5005688;28;20765;-57
2021/08/02 12:44:26;;;;;;;0.30;0.30;;;;;;;;;;5008803;28;20095;-57
2021/08/02 12:46:53;;;;;;;0.32;0.30;;;;;;;;;;5013820;28;20029;-58
2021/08/02 12:49:20;;;;;;;0.35;0.20;;;;;;;;;;5013149;28;20038;-57
2021/08/02 12:51:47;;;;;;;0.20;0.20;;;;;;;;;;4993866;28;20050;-58
2021/08/02 12:54:17;;;;;;;0.63;0.20;;;;;;;;;;5006323;28;20069;-58
2021/08/02 12:56:44;;;;;;;0.28;0.28;;;;;;;;;;4998835;28;20038;-57
2021/08/02 12:59:11;;;;;;;1.05;0.20;;;;;;;;;;5015817;28;20565;-58
2021/08/02 13:01:38;;;;;;;1.33;0.20;;;;;;;;;;5019161;28;20072;-58
2021/08/02 13:04:05;;;;;;;0.20;0.20;;;;;;;;;;5011687;28;20041;-57
2021/08/02 13:06:32;;;;;;;0.20;0.20;;;;;;;;;;5007118;28;20074;-58
2021/08/02 13:08:58;;;;;;;0.20;0.20;;;;;;;;;;5012434;28;20894;-57
2021/08/02 13:11:25;;;;;;;0.20;0.20;;;;;;;;;;5007063;28;20050;-57
2021/08/02 13:13:52;;;;;;;0.20;0.20;;;;;;;;;;5008529;28;20547;-58
2021/08/02 13:16:19;;;;;;;0.60;0.30;;;;;;;;;;4993493;28;20050;-57
2021/08/02 13:18:48;;;;;;;0.20;0.20;;;;;;;;;;5010735;28;20065;-58
2021/08/02 13:21:15;;;;;;;0.10;0.10;;;;;;;;;;5010097;28;20126;-58
2021/08/02 13:29:15;;;;;;;0.20;0.20;;;;;;;;;;5000481;28;20652;-57
2021/08/02 13:31:43;;;;;;;1.05;0.20;;;;;;;;;;5011832;28;20100;-58
2021/08/02 13:34:11;;;;;;;0.38;0.20;;;;;;;;;;5010643;28;20133;-57
2021/08/02 13:36:38;;;;;;;0.20;0.20;;;;;;;;;;4995022;28;20038;-58
2021/08/02 13:39:05;;;;;;;0.30;0.20;;;;;;;;;;5005140;28;20046;-58
2021/08/02 13:41:32;;;;;;;0.20;0.20;;;;;;;;;;5006192;28;20072;-58
2021/08/02 13:43:59;;;;;;;0.60;0.40;;;;;;;;;;4999579;28;20045;-57
2021/08/02 13:46:25;;;;;;;0.30;0.30;;;;;;;;;;5008084;28;20091;-58
2021/08/02 13:48:52;;;;;;;0.20;0.20;;;;;;;;;;5009946;28;20467;-57
2021/08/02 13:51:19;;;;;;;0.28;0.20;;;;;;;;;;5002854;28;20085;-57
2021/08/02 13:53:46;;;;;;;0.43;0.20;;;;;;;;;;5005357;28;20037;-57
2021/08/02 13:56:13;;;;;;;0.28;0.20;;;;;;;;;;5003316;28;20066;-57
2021/08/02 13:58:40;;;;;;;0.20;0.20;;;;;;;;;;5008864;28;20064;-57
2021/08/02 14:01:06;;;;;;;0.30;0.30;;;;;;;;;;5011750;28;20544;-57
2021/08/02 14:03:34;;;;;;;1.38;0.20;;;;;;;;;;5001409;28;20066;-57
2021/08/02 14:06:01;;;;;;;0.22;0.22;;;;;;;;;;5003485;28;20864;-57
2021/08/02 14:08:28;;;;;;;0.20;0.20;;;;;;;;;;4998746;28;20363;-57
2021/08/02 14:11:00;;;;;;;1.45;0.40;;;;;;;;;;5009605;28;20041;-57
2021/08/02 14:13:31;;;;;;;0.30;0.20;;;;;;;;;;4997896;28;20034;-58
2021/08/02 14:15:59;;;;;;;0.30;0.20;;;;;;;;;;5011314;28;20073;-57
2021/08/02 14:18:35;;;;;;;0.20;0.20;;;;;;;;;;5008429;28;20073;-57
2021/08/02 14:21:02;;;;;;;0.20;0.20;;;;;;;;;;4993341;28;20088;-57
2021/08/02 14:23:30;;;;;;;0.90;0.25;;;;;;;;;;5003772;28;20128;-57
2021/08/02 14:26:01;;;;;;;1.20;0.20;;;;;;;;;;5007618;28;20045;-58
2021/08/02 14:28:28;;;;;;;0.20;0.20;;;;;;;;;;5011520;28;20488;-57
2021/08/02 14:30:55;;;;;;;0.20;0.20;;;;;;;;;;5006854;28;20122;-57
2021/08/02 14:33:27;;;;;;;0.28;0.20;;;;;;;;;;4997586;28;20061;-57
2021/08/02 14:35:54;;;;;;;0.20;0.20;;;;;;;;;;5001329;28;20085;-57
2021/08/02 14:38:25;;;;;;;1.67;0.20;;;;;;;;;;5004321;28;20346;-58
2021/08/02 14:40:53;;;;;;;0.95;0.25;;;;;;;;;;5009998;28;20046;-57
2021/08/02 14:43:23;;;;;;;0.30;0.20;;;;;;;;;;5007185;28;20070;-57
2021/08/02 14:45:50;;;;;;;0.28;0.20;;;;;;;;;;5010340;28;20587;-57
2021/08/02 14:48:19;;;;;;;0.20;0.20;;;;;;;;;;4998527;28;20120;-57
2021/08/02 14:50:49;;;;;;;0.30;0.30;;;;;;;;;;5006939;28;20050;-57
2021/08/02 14:53:16;;;;;;;0.20;0.20;;;;;;;;;;4993249;28;20054;-57
2021/08/02 14:55:43;;;;;;;0.20;0.20;;;;;;;;;;5001768;28;20105;-57
2021/08/02 14:58:10;;;;;;;0.28;0.20;;;;;;;;;;5009321;28;20038;-57